Aviation Digital Data Service (ADDS)

Output produced by METARs form (0223 UTC 16 January 2019)
found at http://www.aviationweather.gov/metar/data/
 
TAF AMD KVBG 152352Z 1523/1705 12018G25KT 6000 -RA FEW008 SCT011 BKN020 OVC060
620802 QNH2982INS 
     TEMPO 1523/1603 12025G35KT 4800 -SHRA BKN011 520009 
     BECMG 1604/1605 14009KT 8000 BR BKN007 QNH3003INS 
     BECMG 1612/1613 13012G18KT 9999 NSW BKN008 BKN020 QNH3006INS 
     BECMG 1618/1619 14010G20KT 9999 SCT025 QNH3002INS 
     TEMPO 1619/1623 14015G25KT 8000 -SHRA BKN025 610802 
     BECMG 1622/1623 16010G15KT 4800 -SHRA BKN015 OVC035 610802 QNH3003INS
TX13/1523Z TN11/1606Z LAST NO AMDS AFT 1601 NEXT 1615
       
KVCT 152329Z 1600/1624 08005KT P6SM OVC025 
     TEMPO 1600/1604 4SM -RA BR OVC012 
     FM160400 07005KT 4SM BR OVC009 
     FM161000 08004KT 2SM BR OVC005 
     TEMPO 1611/1615 1/2SM FG OVC003 
     FM162100 VRB05KT 3SM BR OVC007
       
KVEL 160127Z 1601/1624 08004KT 1 1/2SM -SN BR VCSH BKN035 OVC040 
     TEMPO 1601/1604 1SM -SN BR OVC010 
     FM161000 VRB03KT 2SM -SHSN BR BKN003 OVC030 
     FM161400 00000KT 1 1/2SM -SHSN BR BKN003 OVC030 
     FM161800 00000KT 1 1/2SM BR OVC005 
     FM162100 00000KT 2SM BR OVC030
       
KVGT 152320Z 1600/1624 13005KT P6SM -RA FEW007 OVC015 
     TEMPO 1600/1602 5SM BR BKN007 
     FM160200 13006KT P6SM -SHRA BKN020 OVC050 
     FM160900 18007KT P6SM OVC050 
     FM161600 16006KT P6SM SCT050 BKN200
       
KVIS 160016Z 1600/1624 14007KT P6SM OVC090 
     FM160400 14010KT 6SM -SHRA SCT030 BKN050 
     FM160900 11010KT 5SM BR SCT030 BKN050 
     FM161100 10010KT P6SM SCT030 BKN050 
     FM162000 12010KT 4SM BR OVC050
       
KVLD 152320Z 1600/1624 33005KT P6SM FEW250
       
KVNY 152355Z 1600/1624 15008KT 2SM RA BR BKN012 OVC025 
     FM160400 13006KT 4SM -SHRA BR SCT012 BKN025 
     FM160700 VRB03KT P6SM VCSH SCT025 BKN040 
     FM161700 14006KT 6SM -RA BR BKN025 OVC040
       
TAF KVPS 160200Z 1602/1708 36005KT 9999 FEW250 QNH3029INS 
     BECMG 1608/1609 01005KT 9999 FEW020 SCT250 QNH3031INS 
     BECMG 1701/1702 01005KT 9999 SCT250 QNH3033INS TX13/1621Z TN02/1609Z
       
KVQQ 152346Z 1600/1624 35004KT P6SM BKN035 
     FM161500 32005KT P6SM FEW030 SCT250
       
KVRB 152337Z 1600/1624 36008KT P6SM SKC 
     FM161400 36008KT P6SM FEW030 
     FM161800 05010KT P6SM SCT040 SCT250
       
KVTN 160143Z 1602/1624 04010KT 5SM BR OVC005 
     FM160500 07006KT P6SM OVC008 
     FM161400 13006KT P6SM OVC010 
     FM161800 15009KT P6SM OVC020 
     FM162100 17010KT P6SM OVC035